sensor_id;sensor_type;location;lat;lon;timestamp;temperature;humidity
28010;DHT22;15334;49.494;8.410;2022-08-25T19:06:26;26.50;87.30
28010;DHT22;15334;49.494;8.410;2022-08-25T19:08:55;25.90;87.70
28010;DHT22;15334;49.494;8.410;2022-08-25T19:11:23;25.90;88.90
28010;DHT22;15334;49.494;8.410;2022-08-25T19:13:51;25.90;88.00
28010;DHT22;15334;49.494;8.410;2022-08-25T19:16:30;26.00;89.70
28010;DHT22;15334;49.494;8.410;2022-08-25T19:19:01;26.10;89.40
28010;DHT22;15334;49.494;8.410;2022-08-25T19:21:30;26.10;87.80
28010;DHT22;15334;49.494;8.410;2022-08-25T19:23:58;26.20;89.10
28010;DHT22;15334;49.494;8.410;2022-08-25T19:26:29;26.20;89.70
28010;DHT22;15334;49.494;8.410;2022-08-25T19:28:57;26.20;89.70
28010;DHT22;15334;49.494;8.410;2022-08-25T19:31:26;26.20;88.30
28010;DHT22;15334;49.494;8.410;2022-08-25T19:34:01;26.20;88.00
28010;DHT22;15334;49.494;8.410;2022-08-25T19:36:31;26.20;89.40
28010;DHT22;15334;49.494;8.410;2022-08-25T19:39:00;26.20;88.80
28010;DHT22;15334;49.494;8.410;2022-08-25T19:41:29;26.20;88.20
28010;DHT22;15334;49.494;8.410;2022-08-25T19:44:00;26.20;89.80
28010;DHT22;15334;49.494;8.410;2022-08-25T19:46:33;26.20;87.80
28010;DHT22;15334;49.494;8.410;2022-08-25T19:49:04;26.30;89.00
28010;DHT22;15334;49.494;8.410;2022-08-25T19:51:37;26.40;89.30
28010;DHT22;15334;49.494;8.410;2022-08-25T19:54:06;26.40;86.40
28010;DHT22;15334;49.494;8.410;2022-08-25T19:56:36;26.60;86.40
28010;DHT22;15334;49.494;8.410;2022-08-25T19:59:21;26.60;86.00
28010;DHT22;15334;49.494;8.410;2022-08-25T20:01:50;26.70;86.10
28010;DHT22;15334;49.494;8.410;2022-08-25T20:04:18;26.80;86.10
28010;DHT22;15334;49.494;8.410;2022-08-25T20:06:51;26.80;86.20
28010;DHT22;15334;49.494;8.410;2022-08-25T20:09:21;26.80;85.60
28010;DHT22;15334;49.494;8.410;2022-08-25T20:12:07;26.90;90.70
28010;DHT22;15334;49.494;8.410;2022-08-25T20:14:36;26.80;90.70
28010;DHT22;15334;49.494;8.410;2022-08-25T20:17:05;26.60;90.10
28010;DHT22;15334;49.494;8.410;2022-08-25T20:19:51;26.50;89.50
28010;DHT22;15334;49.494;8.410;2022-08-25T20:22:23;26.40;89.60
28010;DHT22;15334;49.494;8.410;2022-08-25T20:24:54;26.30;89.50
28010;DHT22;15334;49.494;8.410;2022-08-25T20:27:29;26.30;90.60
28010;DHT22;15334;49.494;8.410;2022-08-25T20:30:01;26.20;91.00
28010;DHT22;15334;49.494;8.410;2022-08-25T20:32:30;26.20;90.70
28010;DHT22;15334;49.494;8.410;2022-08-25T20:34:59;26.10;90.10
28010;DHT22;15334;49.494;8.410;2022-08-25T20:37:29;26.10;90.40
28010;DHT22;15334;49.494;8.410;2022-08-25T20:39:59;26.10;90.20
28010;DHT22;15334;49.494;8.410;2022-08-25T20:42:28;26.10;91.90
28010;DHT22;15334;49.494;8.410;2022-08-25T20:44:56;26.00;91.50
28010;DHT22;15334;49.494;8.410;2022-08-25T20:47:24;26.00;91.50
28010;DHT22;15334;49.494;8.410;2022-08-25T20:49:52;26.00;91.80
28010;DHT22;15334;49.494;8.410;2022-08-25T20:52:20;25.90;92.80
28010;DHT22;15334;49.494;8.410;2022-08-25T20:54:51;25.80;93.20
28010;DHT22;15334;49.494;8.410;2022-08-25T20:57:21;25.70;93.10
28010;DHT22;15334;49.494;8.410;2022-08-25T20:59:54;25.60;93.30
28010;DHT22;15334;49.494;8.410;2022-08-25T21:02:24;25.50;93.70
28010;DHT22;15334;49.494;8.410;2022-08-25T21:04:54;25.40;93.70
28010;DHT22;15334;49.494;8.410;2022-08-25T21:07:23;25.40;93.10
28010;DHT22;15334;49.494;8.410;2022-08-25T21:09:53;25.30;93.60
28010;DHT22;15334;49.494;8.410;2022-08-25T21:12:21;25.30;94.50
28010;DHT22;15334;49.494;8.410;2022-08-25T21:14:50;25.20;94.70
28010;DHT22;15334;49.494;8.410;2022-08-25T21:17:18;25.20;95.30
28010;DHT22;15334;49.494;8.410;2022-08-25T21:19:46;25.10;95.20
28010;DHT22;15334;49.494;8.410;2022-08-25T21:22:19;24.90;95.60
28010;DHT22;15334;49.494;8.410;2022-08-25T21:24:47;24.80;96.10
28010;DHT22;15334;49.494;8.410;2022-08-25T21:27:18;24.70;96.50
28010;DHT22;15334;49.494;8.410;2022-08-25T21:29:49;24.70;96.20
28010;DHT22;15334;49.494;8.410;2022-08-25T21:32:21;24.70;96.50
28010;DHT22;15334;49.494;8.410;2022-08-25T21:34:51;24.60;97.60
28010;DHT22;15334;49.494;8.410;2022-08-25T21:37:19;24.60;97.80
28010;DHT22;15334;49.494;8.410;2022-08-25T21:39:47;24.60;97.20
28010;DHT22;15334;49.494;8.410;2022-08-25T21:42:15;24.60;97.40
28010;DHT22;15334;49.494;8.410;2022-08-25T21:44:44;24.60;97.60
28010;DHT22;15334;49.494;8.410;2022-08-25T21:47:13;24.60;98.30
28010;DHT22;15334;49.494;8.410;2022-08-25T21:49:47;24.50;98.60
28010;DHT22;15334;49.494;8.410;2022-08-25T21:52:15;24.40;99.10
28010;DHT22;15334;49.494;8.410;2022-08-25T21:54:43;24.40;99.20
28010;DHT22;15334;49.494;8.410;2022-08-25T21:57:12;24.30;99.40
28010;DHT22;15334;49.494;8.410;2022-08-25T21:59:46;24.30;99.90
28010;DHT22;15334;49.494;8.410;2022-08-25T22:02:14;24.20;99.90
28010;DHT22;15334;49.494;8.410;2022-08-25T22:04:50;24.20;99.90
28010;DHT22;15334;49.494;8.410;2022-08-25T22:07:19;24.20;99.90
28010;DHT22;15334;49.494;8.410;2022-08-25T22:09:50;24.00;99.90
28010;DHT22;15334;49.494;8.410;2022-08-25T22:12:18;23.90;99.90
28010;DHT22;15334;49.494;8.410;2022-08-25T22:14:48;23.90;99.90
28010;DHT22;15334;49.494;8.410;2022-08-25T22:17:17;23.90;99.90
28010;DHT22;15334;49.494;8.410;2022-08-25T22:19:50;23.70;99.90
28010;DHT22;15334;49.494;8.410;2022-08-25T22:22:20;23.60;99.90
28010;DHT22;15334;49.494;8.410;2022-08-25T22:24:50;23.60;99.90
28010;DHT22;15334;49.494;8.410;2022-08-25T22:27:18;23.60;99.90
28010;DHT22;15334;49.494;8.410;2022-08-25T22:29:50;23.50;99.90
28010;DHT22;15334;49.494;8.410;2022-08-25T22:32:19;23.50;99.90
28010;DHT22;15334;49.494;8.410;2022-08-25T22:34:47;23.50;99.90
28010;DHT22;15334;49.494;8.410;2022-08-25T22:37:15;23.50;99.90
28010;DHT22;15334;49.494;8.410;2022-08-25T22:39:44;23.50;99.90
28010;DHT22;15334;49.494;8.410;2022-08-25T22:42:13;23.40;99.90
28010;DHT22;15334;49.494;8.410;2022-08-25T22:44:41;23.40;99.90
28010;DHT22;15334;49.494;8.410;2022-08-25T22:47:11;23.40;99.90
28010;DHT22;15334;49.494;8.410;2022-08-25T22:49:39;23.40;99.90
28010;DHT22;15334;49.494;8.410;2022-08-25T22:52:07;23.30;99.90
28010;DHT22;15334;49.494;8.410;2022-08-25T22:54:39;23.30;99.90
28010;DHT22;15334;49.494;8.410;2022-08-25T22:57:09;23.30;99.90
28010;DHT22;15334;49.494;8.410;2022-08-25T22:59:40;23.20;99.90
28010;DHT22;15334;49.494;8.410;2022-08-25T23:02:08;23.20;99.90
28010;DHT22;15334;49.494;8.410;2022-08-25T23:04:38;23.10;99.90
28010;DHT22;15334;49.494;8.410;2022-08-25T23:07:09;23.10;99.90
28010;DHT22;15334;49.494;8.410;2022-08-25T23:09:38;23.00;99.90
28010;DHT22;15334;49.494;8.410;2022-08-25T23:12:06;23.00;99.90
28010;DHT22;15334;49.494;8.410;2022-08-25T23:14:36;23.00;99.90
28010;DHT22;15334;49.494;8.410;2022-08-25T23:17:08;22.90;99.90
28010;DHT22;15334;49.494;8.410;2022-08-25T23:19:35;22.80;99.90
28010;DHT22;15334;49.494;8.410;2022-08-25T23:22:05;22.80;99.90
28010;DHT22;15334;49.494;8.410;2022-08-25T23:24:36;22.80;99.90
28010;DHT22;15334;49.494;8.410;2022-08-25T23:27:09;22.80;99.90
28010;DHT22;15334;49.494;8.410;2022-08-25T23:29:40;22.70;99.90
28010;DHT22;15334;49.494;8.410;2022-08-25T23:32:12;22.60;99.90
28010;DHT22;15334;49.494;8.410;2022-08-25T23:34:43;22.60;99.90
